createdAt,value
2022-09-16T00:02:13.516Z,14.68
2022-09-16T00:05:16.866Z,14.72
2022-09-16T00:08:19.854Z,14.61
2022-09-16T00:11:22.737Z,14.53
2022-09-16T00:14:26.836Z,14.38
2022-09-16T00:17:30.386Z,14.29
2022-09-16T00:20:32.277Z,14.36
2022-09-16T00:23:34.460Z,14.31
2022-09-16T00:26:38.623Z,14.33
2022-09-16T00:29:40.546Z,14.40
2022-09-16T00:32:43.047Z,14.31
2022-09-16T00:35:44.887Z,14.34
2022-09-16T00:38:51.397Z,14.28
2022-09-16T00:41:53.378Z,14.23
2022-09-16T00:44:59.689Z,14.28
2022-09-16T00:48:05.147Z,14.17
2022-09-16T00:51:10.896Z,13.98
2022-09-16T00:54:14.527Z,13.82
2022-09-16T00:57:16.674Z,13.75
2022-09-16T01:00:18.635Z,13.74
2022-09-16T01:03:21.790Z,13.77
2022-09-16T01:06:24.700Z,13.85
2022-09-16T01:09:27.057Z,13.93
2022-09-16T01:12:30.072Z,13.94
2022-09-16T01:15:45.017Z,14.01
2022-09-16T01:19:10.582Z,14.10
2022-09-16T01:22:21.091Z,14.16
2022-09-16T01:25:32.167Z,14.18
2022-09-16T01:28:42.522Z,14.20
2022-09-16T01:32:03.846Z,14.22
2022-09-16T01:35:24.951Z,14.08
2022-09-16T01:38:37.130Z,14.16
2022-09-16T01:41:53.113Z,14.16
2022-09-16T01:45:07.382Z,14.19
2022-09-16T01:48:17.428Z,14.20
2022-09-16T01:51:47.343Z,14.15
2022-09-16T01:55:04.757Z,14.17
2022-09-16T01:58:36.830Z,14.19
2022-09-16T02:01:49.346Z,14.16
2022-09-16T02:04:55.346Z,14.10
2022-09-16T02:08:01.694Z,13.99
2022-09-16T02:11:06.944Z,14.10
2022-09-16T02:14:23.382Z,14.10
2022-09-16T02:17:27.523Z,14.08
2022-09-16T02:20:31.014Z,14.10
2022-09-16T02:23:40.212Z,14.15
2022-09-16T02:26:49.828Z,14.20
2022-09-16T02:29:56.149Z,14.18
2022-09-16T02:33:06.217Z,14.16
2022-09-16T02:36:08.686Z,13.95
2022-09-16T02:39:13.697Z,13.99
2022-09-16T02:42:16.223Z,14.02
2022-09-16T02:45:18.499Z,14.01
2022-09-16T02:48:27.198Z,14.01
2022-09-16T02:51:44.565Z,13.98
2022-09-16T02:54:54.759Z,14.08
2022-09-16T02:57:56.912Z,14.07
2022-09-16T03:00:59.855Z,14.02
2022-09-16T03:04:02.075Z,14.03
2022-09-16T03:07:07.241Z,13.98
2022-09-16T03:10:11.161Z,13.90
2022-09-16T03:13:22.953Z,13.92
2022-09-16T03:16:34.846Z,13.83
2022-09-16T03:19:43.891Z,13.78
2022-09-16T03:23:01.740Z,13.67
2022-09-16T03:26:21.788Z,13.64
2022-09-16T03:29:30.163Z,13.55
2022-09-16T03:32:36.333Z,13.40
2022-09-16T03:35:45.259Z,13.35
2022-09-16T03:38:47.608Z,13.31
2022-09-16T03:41:51.777Z,13.15
2022-09-16T03:44:53.772Z,13.03
2022-09-16T03:47:56.194Z,12.91
2022-09-16T03:50:58.132Z,12.77
2022-09-16T03:54:00.099Z,12.74
2022-09-16T03:57:02.842Z,12.54
2022-09-16T04:00:06.838Z,12.54
2022-09-16T04:03:13.740Z,12.53
2022-09-16T04:06:15.565Z,12.55
2022-09-16T04:09:18.603Z,12.53
2022-09-16T04:12:20.477Z,12.55
2022-09-16T04:15:22.650Z,12.59
2022-09-16T04:18:27.000Z,12.69
2022-09-16T04:21:32.352Z,12.71
2022-09-16T04:24:37.174Z,12.65
2022-09-16T04:27:39.539Z,12.71
2022-09-16T04:30:41.609Z,12.72
2022-09-16T04:33:43.760Z,12.69
2022-09-16T04:36:45.689Z,12.74
2022-09-16T04:39:47.719Z,12.64
2022-09-16T04:42:52.074Z,12.58
2022-09-16T04:45:55.225Z,12.60
2022-09-16T04:49:00.182Z,12.62
2022-09-16T04:52:03.006Z,12.63
2022-09-16T04:55:05.675Z,12.88
2022-09-16T04:58:11.107Z,12.84
2022-09-16T05:01:25.186Z,12.70
2022-09-16T05:04:27.927Z,12.78
2022-09-16T05:07:30.259Z,12.85
2022-09-16T05:10:35.508Z,12.99
2022-09-16T05:13:39.052Z,13.13
2022-09-16T05:16:44.197Z,13.14
2022-09-16T05:19:46.389Z,13.10
2022-09-16T05:22:53.193Z,13.08
2022-09-16T05:25:55.467Z,13.13
2022-09-16T05:29:02.518Z,13.31
2022-09-16T05:32:04.925Z,13.47
2022-09-16T05:35:10.223Z,13.65
2022-09-16T05:38:13.596Z,13.80
2022-09-16T05:41:15.877Z,13.92
2022-09-16T05:44:18.009Z,14.00
2022-09-16T05:47:20.269Z,14.27
2022-09-16T05:50:22.837Z,14.40
2022-09-16T05:53:25.972Z,14.48
2022-09-16T05:56:30.745Z,14.48
2022-09-16T05:59:32.603Z,14.82
2022-09-16T06:02:34.894Z,14.87
2022-09-16T06:05:36.897Z,14.83
2022-09-16T06:08:39.740Z,15.07
2022-09-16T06:11:45.569Z,15.17
2022-09-16T06:14:47.711Z,15.36
2022-09-16T06:17:50.198Z,15.21
2022-09-16T06:20:53.375Z,15.27
2022-09-16T06:23:56.943Z,15.54
2022-09-16T06:26:59.364Z,15.40
2022-09-16T06:30:01.696Z,15.56
2022-09-16T06:33:04.271Z,15.52
2022-09-16T06:36:08.479Z,15.76
2022-09-16T06:39:12.231Z,15.65
2022-09-16T06:42:14.552Z,15.50
2022-09-16T06:45:17.374Z,15.41
2022-09-16T06:48:19.718Z,15.79
2022-09-16T06:51:28.453Z,15.94
2022-09-16T06:54:30.815Z,16.23
2022-09-16T06:57:33.636Z,16.52
2022-09-16T07:00:35.538Z,16.09
2022-09-16T07:03:40.608Z,15.89
2022-09-16T07:07:08.009Z,16.17
2022-09-16T07:10:09.318Z,16.10
2022-09-16T07:13:11.779Z,16.17
2022-09-16T07:16:21.358Z,16.45
2022-09-16T07:19:24.664Z,16.34
2022-09-16T07:22:26.749Z,16.33
2022-09-16T07:25:35.471Z,16.31
2022-09-16T07:28:41.478Z,16.43
2022-09-16T07:31:43.968Z,16.39
2022-09-16T07:34:46.037Z,16.38
2022-09-16T07:37:50.353Z,16.58
2022-09-16T07:40:53.721Z,16.98
2022-09-16T07:43:59.472Z,16.90
2022-09-16T07:47:01.590Z,17.12
2022-09-16T07:50:05.219Z,17.34
2022-09-16T07:53:07.253Z,17.60
2022-09-16T07:56:15.281Z,17.49
2022-09-16T07:59:19.492Z,17.60
2022-09-16T08:02:21.615Z,17.74
2022-09-16T08:05:24.033Z,17.84
2022-09-16T08:08:26.266Z,17.85
2022-09-16T08:11:29.277Z,17.46
2022-09-16T08:14:31.365Z,17.44
2022-09-16T08:17:33.596Z,17.53
2022-09-16T08:20:37.315Z,17.25
2022-09-16T08:23:39.773Z,17.75
2022-09-16T08:26:41.877Z,17.75
2022-09-16T08:29:44.100Z,17.91
2022-09-16T08:32:46.119Z,17.91
2022-09-16T08:35:48.789Z,17.53
2022-09-16T08:38:53.656Z,17.61
2022-09-16T08:41:55.612Z,17.89
2022-09-16T08:45:00.544Z,17.91
2022-09-16T08:48:10.937Z,18.33
2022-09-16T08:51:16.595Z,18.82
2022-09-16T08:54:47.111Z,18.69
2022-09-16T08:58:15.721Z,18.88
2022-09-16T09:01:23.667Z,19.24
2022-09-16T09:04:25.827Z,19.54
2022-09-16T09:07:56.128Z,19.74
2022-09-16T09:11:13.303Z,19.99
2022-09-16T09:14:24.557Z,20.11
2022-09-16T09:17:29.577Z,19.95
2022-09-16T09:20:44.123Z,19.44
2022-09-16T09:23:52.459Z,20.13
2022-09-16T09:27:15.552Z,19.28
2022-09-16T09:30:26.055Z,18.83
2022-09-16T09:33:57.051Z,18.78
2022-09-16T09:37:18.568Z,18.22
2022-09-16T09:40:57.080Z,17.76
2022-09-16T09:44:08.311Z,17.68
2022-09-16T09:47:28.008Z,17.45
2022-09-16T09:50:44.727Z,17.61
2022-09-16T09:53:53.111Z,18.08
2022-09-16T09:57:00.263Z,18.63
2022-09-16T10:00:12.197Z,18.52
2022-09-16T10:03:17.581Z,18.33
2022-09-16T10:06:26.436Z,17.86
2022-09-16T10:09:28.940Z,17.89
2022-09-16T10:12:33.344Z,17.93
2022-09-16T10:15:35.521Z,17.93
2022-09-16T10:18:37.824Z,17.94
2022-09-16T10:21:46.406Z,18.12
2022-09-16T10:24:55.115Z,17.96
2022-09-16T10:28:00.490Z,18.28
2022-09-16T10:31:02.880Z,18.38
2022-09-16T10:34:37.298Z,18.38
2022-09-16T10:37:41.732Z,18.52
2022-09-16T10:40:53.961Z,18.43
2022-09-16T10:44:17.693Z,18.95
2022-09-16T10:47:25.617Z,19.17
2022-09-16T10:50:28.235Z,19.45
2022-09-16T10:53:56.055Z,19.60
2022-09-16T10:56:58.462Z,19.26
2022-09-16T11:00:13.849Z,19.05
2022-09-16T11:03:50.428Z,18.74
2022-09-16T11:06:59.099Z,18.87
2022-09-16T11:10:19.501Z,19.03
2022-09-16T11:13:48.232Z,19.36
2022-09-16T11:17:11.748Z,19.26
2022-09-16T11:20:40.760Z,18.91
2022-09-16T11:24:03.364Z,19.23
2022-09-16T11:27:37.542Z,19.22
2022-09-16T11:31:07.089Z,18.99
2022-09-16T11:34:34.501Z,18.69
2022-09-16T11:37:57.847Z,19.01
2022-09-16T11:40:59.702Z,19.28
2022-09-16T11:44:24.156Z,19.25
2022-09-16T11:47:26.104Z,19.27
2022-09-16T11:51:01.949Z,18.86
2022-09-16T11:54:41.642Z,18.88
2022-09-16T11:57:48.809Z,19.06
2022-09-16T12:00:52.620Z,19.32
2022-09-16T12:04:01.030Z,19.58
2022-09-16T12:07:25.612Z,19.10
2022-09-16T12:10:38.374Z,19.25
2022-09-16T12:13:45.075Z,18.72
2022-09-16T12:16:50.865Z,18.39
2022-09-16T12:20:01.687Z,18.66
2022-09-16T12:23:06.791Z,18.54
2022-09-16T12:26:20.267Z,18.57
2022-09-16T12:29:30.169Z,18.26
2022-09-16T12:32:39.352Z,18.47
2022-09-16T12:36:08.908Z,18.23
2022-09-16T12:39:12.818Z,18.33
2022-09-16T12:42:36.616Z,18.41
2022-09-16T12:45:44.837Z,18.68
2022-09-16T12:48:59.895Z,18.68
2022-09-16T12:52:17.495Z,19.09
2022-09-16T12:55:48.715Z,19.01
2022-09-16T12:59:21.781Z,19.00
2022-09-16T13:02:30.634Z,19.28
2022-09-16T13:05:34.807Z,19.41
2022-09-16T13:08:37.270Z,19.49
2022-09-16T13:12:24.090Z,19.74
2022-09-16T13:15:05.533Z,19.30
2022-09-16T13:18:18.787Z,19.63
2022-09-16T13:21:31.191Z,19.36
2022-09-16T13:25:15.192Z,19.63
2022-09-16T13:28:35.360Z,19.86
2022-09-16T13:31:47.598Z,19.76
2022-09-16T13:35:01.044Z,19.80
2022-09-16T13:38:15.261Z,19.99
2022-09-16T13:41:33.575Z,20.00
2022-09-16T13:44:41.458Z,20.19
2022-09-16T13:47:49.581Z,20.02
2022-09-16T13:50:54.295Z,20.15
2022-09-16T13:54:02.783Z,20.32
2022-09-16T13:57:12.888Z,20.46
2022-09-16T14:00:23.389Z,19.91
2022-09-16T14:04:07.111Z,19.61
2022-09-16T14:07:35.540Z,19.26
2022-09-16T14:10:59.320Z,18.87
2022-09-16T14:14:29.816Z,18.83
2022-09-16T14:17:42.252Z,18.99
2022-09-16T14:21:02.100Z,18.60
2022-09-16T14:24:20.348Z,18.55
2022-09-16T14:27:28.936Z,18.43
2022-09-16T14:30:31.525Z,18.44
2022-09-16T14:33:42.404Z,18.52
2022-09-16T14:36:46.203Z,18.89
2022-09-16T14:39:54.473Z,19.17
2022-09-16T14:43:05.016Z,19.58
2022-09-16T14:46:08.063Z,19.52
2022-09-16T14:49:12.091Z,19.46
2022-09-16T14:52:26.759Z,19.30
2022-09-16T14:55:40.366Z,19.18
2022-09-16T14:58:42.305Z,19.44
2022-09-16T15:01:44.289Z,19.51
2022-09-16T15:04:49.766Z,19.22
2022-09-16T15:08:12.795Z,19.19
2022-09-16T15:11:46.010Z,19.05
2022-09-16T15:14:40.571Z,19.18
2022-09-16T15:17:42.674Z,19.03
2022-09-16T15:20:51.023Z,18.88
2022-09-16T15:23:55.607Z,18.85
2022-09-16T15:26:58.078Z,19.01
2022-09-16T15:30:01.348Z,18.96
2022-09-16T15:33:03.536Z,18.94
2022-09-16T15:36:07.905Z,19.00
2022-09-16T15:39:35.491Z,18.88
2022-09-16T15:42:37.680Z,18.45
2022-09-16T15:45:40.801Z,18.62
2022-09-16T15:48:45.508Z,18.57
2022-09-16T15:51:49.214Z,18.45
2022-09-16T15:54:54.539Z,18.38
2022-09-16T15:58:06.808Z,18.24
2022-09-16T16:01:19.535Z,18.12
2022-09-16T16:04:24.790Z,18.12
2022-09-16T16:07:43.496Z,17.89
2022-09-16T16:11:12.510Z,17.78
2022-09-16T16:14:14.375Z,17.74
2022-09-16T16:17:21.370Z,17.68
2022-09-16T16:20:24.239Z,17.57
2022-09-16T16:23:26.570Z,17.50
2022-09-16T16:26:28.570Z,17.44
2022-09-16T16:29:30.971Z,17.41
2022-09-16T16:32:33.162Z,17.30
2022-09-16T16:35:35.025Z,17.31
2022-09-16T16:38:36.993Z,17.19
2022-09-16T16:41:38.834Z,17.11
2022-09-16T16:44:41.116Z,17.13
2022-09-16T16:47:44.231Z,17.06
2022-09-16T16:50:55.651Z,17.05
2022-09-16T16:53:57.926Z,17.06
2022-09-16T16:57:00.593Z,17.05
2022-09-16T17:00:03.651Z,16.99
2022-09-16T17:03:05.817Z,16.96
2022-09-16T17:06:09.218Z,16.85
2022-09-16T17:09:15.742Z,16.76
2022-09-16T17:12:18.303Z,16.71
2022-09-16T17:15:20.282Z,16.70
2022-09-16T17:18:22.214Z,16.59
2022-09-16T17:21:27.001Z,16.55
2022-09-16T17:24:29.281Z,16.53
2022-09-16T17:27:31.468Z,16.49
2022-09-16T17:30:34.344Z,16.45
2022-09-16T17:33:36.609Z,16.43
2022-09-16T17:36:41.319Z,16.31
2022-09-16T17:39:43.199Z,16.35
2022-09-16T17:42:45.327Z,16.41
2022-09-16T17:45:49.524Z,16.41
2022-09-16T17:48:51.303Z,16.38
2022-09-16T17:51:53.938Z,16.27
2022-09-16T17:54:56.228Z,16.20
2022-09-16T17:57:58.283Z,16.05
2022-09-16T18:01:24.672Z,16.08
2022-09-16T18:04:27.074Z,16.15
2022-09-16T18:07:28.991Z,16.19
2022-09-16T18:10:31.961Z,16.20
2022-09-16T18:13:36.224Z,16.17
2022-09-16T18:16:38.777Z,16.00
2022-09-16T18:19:40.864Z,16.14
2022-09-16T18:22:42.839Z,16.00
2022-09-16T18:25:44.957Z,15.97
2022-09-16T18:29:09.166Z,15.96
2022-09-16T18:32:11.682Z,15.73
2022-09-16T18:35:14.516Z,15.75
2022-09-16T18:38:19.205Z,15.69
2022-09-16T18:41:25.018Z,15.68
2022-09-16T18:44:29.658Z,15.64
2022-09-16T18:47:34.421Z,15.79
2022-09-16T18:50:36.847Z,15.81
2022-09-16T18:53:39.905Z,15.82
2022-09-16T18:56:43.199Z,15.81
2022-09-16T18:59:47.658Z,15.80
2022-09-16T19:02:52.701Z,15.85
2022-09-16T19:05:57.028Z,15.83
2022-09-16T19:09:09.487Z,15.82
2022-09-16T19:12:13.842Z,15.90
2022-09-16T19:15:16.008Z,15.88
2022-09-16T19:18:21.475Z,15.86
2022-09-16T19:21:24.549Z,15.82
2022-09-16T19:24:30.887Z,15.73
2022-09-16T19:27:36.413Z,15.38
2022-09-16T19:30:41.429Z,15.59
2022-09-16T19:33:45.286Z,15.60
2022-09-16T19:36:49.288Z,15.65
2022-09-16T19:39:51.938Z,15.43
2022-09-16T19:42:55.621Z,15.28
2022-09-16T19:46:12.057Z,15.38
2022-09-16T19:49:17.732Z,15.44
2022-09-16T19:52:19.872Z,15.38
2022-09-16T19:55:24.359Z,15.38
2022-09-16T19:58:27.913Z,15.42
2022-09-16T20:01:32.307Z,15.38
2022-09-16T20:04:34.768Z,15.35
2022-09-16T20:07:37.184Z,15.34
2022-09-16T20:10:39.652Z,15.33
2022-09-16T20:13:43.008Z,15.34
2022-09-16T20:16:45.353Z,15.23
2022-09-16T20:19:47.728Z,15.15
2022-09-16T20:22:50.014Z,15.34
2022-09-16T20:25:56.972Z,15.40
2022-09-16T20:28:59.323Z,15.38
2022-09-16T20:32:01.933Z,15.27
2022-09-16T20:35:04.385Z,15.38
2022-09-16T20:38:06.580Z,15.38
2022-09-16T20:41:12.065Z,15.23
2022-09-16T20:44:16.083Z,15.18
2022-09-16T20:47:18.767Z,15.10
2022-09-16T20:50:21.003Z,15.02
2022-09-16T20:53:23.229Z,14.95
2022-09-16T20:56:26.749Z,14.98
2022-09-16T20:59:29.711Z,14.92
2022-09-16T21:02:32.522Z,14.80
2022-09-16T21:05:34.648Z,14.78
2022-09-16T21:08:40.097Z,14.83
2022-09-16T21:11:45.361Z,14.83
2022-09-16T21:14:47.494Z,14.96
2022-09-16T21:17:49.526Z,14.69
2022-09-16T21:21:06.119Z,14.73
2022-09-16T21:24:08.736Z,14.57
2022-09-16T21:27:10.739Z,14.51
2022-09-16T21:30:13.078Z,14.47
2022-09-16T21:33:15.607Z,14.34
2022-09-16T21:36:19.570Z,14.28
2022-09-16T21:39:22.127Z,14.20
2022-09-16T21:42:24.261Z,14.09
2022-09-16T21:45:26.284Z,14.07
2022-09-16T21:48:29.143Z,14.02
2022-09-16T21:51:35.436Z,13.98
2022-09-16T21:54:37.500Z,13.87
2022-09-16T21:57:39.371Z,13.76
2022-09-16T22:00:41.250Z,13.70
2022-09-16T22:03:44.032Z,13.68
2022-09-16T22:06:46.109Z,13.61
2022-09-16T22:09:47.951Z,13.51
2022-09-16T22:12:49.788Z,13.47
2022-09-16T22:15:52.636Z,13.43
2022-09-16T22:18:55.973Z,13.47
2022-09-16T22:21:57.800Z,13.49
2022-09-16T22:24:59.702Z,13.40
2022-09-16T22:28:01.663Z,13.39
2022-09-16T22:31:15.809Z,13.35
2022-09-16T22:34:17.993Z,13.36
2022-09-16T22:37:19.741Z,13.42
2022-09-16T22:40:21.807Z,13.44
2022-09-16T22:43:23.711Z,13.42
2022-09-16T22:46:38.891Z,13.44
2022-09-16T22:49:40.724Z,13.49
2022-09-16T22:52:42.559Z,13.48
2022-09-16T22:55:44.336Z,13.52
2022-09-16T22:58:46.843Z,13.51
2022-09-16T23:01:49.317Z,13.52
2022-09-16T23:04:51.229Z,13.43
2022-09-16T23:07:55.467Z,13.47
2022-09-16T23:10:57.382Z,13.49
2022-09-16T23:14:01.244Z,13.61
2022-09-16T23:17:03.012Z,13.52
2022-09-16T23:20:05.350Z,13.56
2022-09-16T23:23:10.071Z,13.67
2022-09-16T23:26:18.171Z,13.72
2022-09-16T23:29:19.969Z,13.59
2022-09-16T23:32:21.755Z,13.62
2022-09-16T23:35:23.644Z,13.52
2022-09-16T23:38:25.578Z,13.44
2022-09-16T23:41:27.845Z,13.41
2022-09-16T23:44:29.573Z,13.34
2022-09-16T23:47:31.321Z,13.17
2022-09-16T23:50:33.267Z,13.09
2022-09-16T23:53:35.986Z,13.17
2022-09-16T23:56:37.715Z,12.98
2022-09-16T23:59:39.664Z,13.16
